createdAt,value
2022-12-14T00:01:58.226Z,23.73
2022-12-14T00:04:26.388Z,22.42
2022-12-14T00:06:54.451Z,22.33
2022-12-14T00:09:22.709Z,21.25
2022-12-14T00:11:50.892Z,22.75
2022-12-14T00:14:18.980Z,23.17
2022-12-14T00:16:48.471Z,23.55
2022-12-14T00:19:16.731Z,21.85
2022-12-14T00:21:44.804Z,23.33
2022-12-14T00:24:12.880Z,22.80
2022-12-14T00:26:40.979Z,23.23
2022-12-14T00:29:09.056Z,22.30
2022-12-14T00:31:37.225Z,22.92
2022-12-14T00:34:06.759Z,23.17
2022-12-14T00:36:36.560Z,24.08
2022-12-14T00:39:05.387Z,23.10
2022-12-14T00:41:33.428Z,25.05
2022-12-14T00:44:01.493Z,23.88
2022-12-14T00:46:29.599Z,23.98
2022-12-14T00:48:57.722Z,23.55
2022-12-14T00:51:27.175Z,24.55
2022-12-14T00:53:55.328Z,25.17
2022-12-14T00:56:23.375Z,23.52
2022-12-14T00:58:52.946Z,25.95
2022-12-14T01:01:22.057Z,24.90
2022-12-14T01:03:51.017Z,25.83
2022-12-14T01:06:21.765Z,24.52
2022-12-14T01:08:51.229Z,25.10
2022-12-14T01:11:19.445Z,26.08
2022-12-14T01:13:49.502Z,26.33
2022-12-14T01:16:18.211Z,25.35
2022-12-14T01:18:46.459Z,26.27
2022-12-14T01:21:17.353Z,27.50
2022-12-14T01:23:46.390Z,27.17
2022-12-14T01:26:17.679Z,26.60
2022-12-14T01:28:47.205Z,27.70
2022-12-14T01:31:17.434Z,24.00
2022-12-14T01:33:46.046Z,21.70
2022-12-14T01:36:17.104Z,23.90
2022-12-14T01:38:45.603Z,25.63
2022-12-14T01:41:26.426Z,26.92
2022-12-14T01:43:56.549Z,27.95
2022-12-14T01:46:32.516Z,28.38
2022-12-14T01:49:17.222Z,26.98
2022-12-14T01:51:55.336Z,27.00
2022-12-14T01:54:23.818Z,27.33
2022-12-14T01:56:55.472Z,26.05
2022-12-14T01:59:29.873Z,28.50
2022-12-14T02:01:59.657Z,25.48
2022-12-14T02:04:28.352Z,26.90
2022-12-14T02:07:01.170Z,27.27
2022-12-14T02:09:33.564Z,25.30
2022-12-14T02:12:09.835Z,25.92
2022-12-14T02:14:38.802Z,26.52
2022-12-14T02:17:09.898Z,26.55
2022-12-14T02:19:38.754Z,25.35
2022-12-14T02:22:26.669Z,24.55
2022-12-14T02:25:17.018Z,24.38
2022-12-14T02:28:09.782Z,24.08
2022-12-14T02:30:41.919Z,22.60
2022-12-14T02:33:29.030Z,24.48
2022-12-14T02:36:02.981Z,22.30
2022-12-14T02:38:48.523Z,20.55
2022-12-14T02:41:23.910Z,19.67
2022-12-14T02:44:02.891Z,22.25
2022-12-14T02:46:40.208Z,22.90
2022-12-14T02:49:16.776Z,21.38
2022-12-14T02:51:55.664Z,23.20
2022-12-14T02:54:30.653Z,22.98
2022-12-14T02:57:10.647Z,21.60
2022-12-14T02:59:38.822Z,21.98
2022-12-14T03:02:09.029Z,23.02
2022-12-14T03:04:46.064Z,24.55
2022-12-14T03:07:43.405Z,22.10
2022-12-14T03:10:22.602Z,22.70
2022-12-14T03:12:57.473Z,25.38
2022-12-14T03:15:29.026Z,20.60
2022-12-14T03:18:03.490Z,22.02
2022-12-14T03:20:35.303Z,24.40
2022-12-14T03:23:09.490Z,23.03
2022-12-14T03:25:44.260Z,23.67
2022-12-14T03:28:17.902Z,24.75
2022-12-14T03:31:00.769Z,24.58
2022-12-14T03:33:32.876Z,25.10
2022-12-14T03:36:07.840Z,24.60
2022-12-14T03:38:41.513Z,24.00
2022-12-14T03:41:18.284Z,23.92
2022-12-14T03:43:58.272Z,22.45
2022-12-14T03:46:38.041Z,24.00
2022-12-14T03:49:16.662Z,24.38
2022-12-14T03:51:55.374Z,20.40
2022-12-14T03:54:29.448Z,25.05
2022-12-14T03:57:04.720Z,24.42
2022-12-14T03:59:39.857Z,25.80
2022-12-14T04:02:13.715Z,25.08
2022-12-14T04:04:49.993Z,24.85
2022-12-14T04:07:25.150Z,25.88
2022-12-14T04:09:57.284Z,26.20
2022-12-14T04:12:51.626Z,24.83
2022-12-14T04:15:45.943Z,23.40
2022-12-14T04:18:38.972Z,22.45
2022-12-14T04:21:12.848Z,23.00
2022-12-14T04:24:05.236Z,23.70
2022-12-14T04:26:43.982Z,24.90
2022-12-14T04:29:28.839Z,24.90
2022-12-14T04:32:01.628Z,23.98
2022-12-14T04:34:32.419Z,25.27
2022-12-14T04:37:06.336Z,24.58
2022-12-14T04:39:42.252Z,23.42
2022-12-14T04:42:12.696Z,25.50
2022-12-14T04:44:43.955Z,25.05
2022-12-14T04:47:15.597Z,24.27
2022-12-14T04:49:50.927Z,25.65
2022-12-14T04:52:26.485Z,25.90
2022-12-14T04:55:00.899Z,24.13
2022-12-14T04:57:35.523Z,27.02
2022-12-14T05:00:05.775Z,21.02
2022-12-14T05:02:46.934Z,24.35
2022-12-14T05:05:20.043Z,22.90
2022-12-14T05:07:56.936Z,21.23
2022-12-14T05:10:34.022Z,23.15
2022-12-14T05:13:06.725Z,22.17
2022-12-14T05:18:06.624Z,21.85
2022-12-14T05:20:34.971Z,19.00
2022-12-14T05:23:04.976Z,23.30
2022-12-14T05:25:33.380Z,21.52
2022-12-14T05:28:01.478Z,20.15
2022-12-14T05:30:29.821Z,20.27
2022-12-14T05:32:58.767Z,20.20
2022-12-14T05:35:28.998Z,16.77
2022-12-14T05:37:57.172Z,20.95
2022-12-14T05:40:26.755Z,18.42
2022-12-14T05:43:05.217Z,19.65
2022-12-14T05:45:33.332Z,18.63
2022-12-14T05:48:01.437Z,17.65
2022-12-14T05:50:29.636Z,17.50
2022-12-14T05:52:57.719Z,18.67
2022-12-14T05:55:27.202Z,18.50
2022-12-14T05:57:55.285Z,17.38
2022-12-14T06:00:23.596Z,18.40
2022-12-14T06:02:51.737Z,16.15
2022-12-14T06:05:19.899Z,17.55
2022-12-14T06:07:48.024Z,17.58
2022-12-14T06:10:17.407Z,17.40
2022-12-14T06:12:46.876Z,17.85
2022-12-14T06:15:15.264Z,17.65
2022-12-14T06:17:44.362Z,17.27
2022-12-14T06:20:13.045Z,17.02
2022-12-14T06:22:47.340Z,16.63
2022-12-14T06:25:15.979Z,15.57
2022-12-14T06:27:44.074Z,15.82
2022-12-14T06:30:14.916Z,15.18
2022-12-14T06:32:43.040Z,17.88
2022-12-14T06:35:11.410Z,13.48
2022-12-14T06:37:39.740Z,16.23
2022-12-14T06:40:08.971Z,17.02
2022-12-14T06:42:37.103Z,19.92
2022-12-14T06:45:05.775Z,17.67
2022-12-14T06:47:36.118Z,18.52
2022-12-14T06:50:04.230Z,16.50
2022-12-14T06:52:32.329Z,15.98
2022-12-14T06:55:00.395Z,16.30
2022-12-14T06:57:28.500Z,17.67
2022-12-14T06:59:56.611Z,15.88
2022-12-14T07:02:24.868Z,16.83
2022-12-14T07:04:54.480Z,19.38
2022-12-14T07:07:22.554Z,15.57
2022-12-14T07:09:50.721Z,15.40
2022-12-14T07:12:18.806Z,15.65
2022-12-14T07:14:46.906Z,15.45
2022-12-14T07:17:15.032Z,15.35
2022-12-14T07:19:44.628Z,13.48
2022-12-14T07:22:18.671Z,16.13
2022-12-14T07:24:46.854Z,17.10
2022-12-14T07:27:15.001Z,16.02
2022-12-14T07:29:43.146Z,15.75
2022-12-14T07:32:11.206Z,15.27
2022-12-14T07:34:39.285Z,13.75
2022-12-14T07:37:07.385Z,15.85
2022-12-14T07:39:36.917Z,15.80
2022-12-14T07:42:05.135Z,13.48
2022-12-14T07:44:33.222Z,16.13
2022-12-14T07:47:01.370Z,12.73
2022-12-14T07:49:29.511Z,16.90
2022-12-14T07:51:57.675Z,16.77
2022-12-14T07:54:26.548Z,15.73
2022-12-14T07:56:56.462Z,18.08
2022-12-14T07:59:25.119Z,18.00
2022-12-14T08:01:55.866Z,17.63
2022-12-14T08:04:27.275Z,17.70
2022-12-14T08:06:59.390Z,17.17
2022-12-14T08:09:27.574Z,18.67
2022-12-14T08:11:57.324Z,15.48
2022-12-14T08:14:25.459Z,16.50
2022-12-14T08:16:53.591Z,17.23
2022-12-14T08:19:26.461Z,16.67
2022-12-14T08:21:56.655Z,14.13
2022-12-14T08:24:27.047Z,15.60
2022-12-14T08:26:57.022Z,17.77
2022-12-14T08:29:25.142Z,17.30
2022-12-14T08:31:56.577Z,18.05
2022-12-14T08:34:24.801Z,17.35
2022-12-14T08:36:53.017Z,16.95
2022-12-14T08:39:21.399Z,16.48
2022-12-14T08:41:49.462Z,15.45
2022-12-14T08:44:19.209Z,14.13
2022-12-14T08:46:47.775Z,17.30
2022-12-14T08:49:16.201Z,16.38
2022-12-14T08:51:44.307Z,16.10
2022-12-14T08:54:12.883Z,14.90
2022-12-14T08:56:40.993Z,17.73
2022-12-14T08:59:15.929Z,13.80
2022-12-14T09:01:58.831Z,15.70
2022-12-14T09:04:27.294Z,14.70
2022-12-14T09:06:55.415Z,15.85
2022-12-14T09:09:23.537Z,14.98
2022-12-14T09:11:51.682Z,15.95
2022-12-14T09:14:19.829Z,16.60
2022-12-14T09:16:47.992Z,16.95
2022-12-14T09:19:17.550Z,15.85
2022-12-14T09:21:45.670Z,14.98
2022-12-14T09:24:13.774Z,16.23
2022-12-14T09:26:42.005Z,14.95
2022-12-14T09:29:15.065Z,14.45
2022-12-14T09:31:43.470Z,13.93
2022-12-14T09:34:14.290Z,15.32
2022-12-14T09:36:43.795Z,14.73
2022-12-14T09:39:15.005Z,15.73
2022-12-14T09:42:10.691Z,15.32
2022-12-14T09:44:55.245Z,13.98
2022-12-14T09:47:32.631Z,14.52
2022-12-14T09:50:05.356Z,13.82
2022-12-14T09:55:18.623Z,14.45
2022-12-14T09:57:50.390Z,14.70
2022-12-14T10:00:21.086Z,14.65
2022-12-14T10:03:10.158Z,14.20
2022-12-14T10:05:53.313Z,9.82
2022-12-14T10:11:01.787Z,13.93
2022-12-14T10:13:38.874Z,15.23
2022-12-14T10:16:17.857Z,12.27
2022-12-14T10:19:02.488Z,15.13
2022-12-14T10:21:42.726Z,13.57
2022-12-14T10:24:17.675Z,15.13
2022-12-14T10:26:52.335Z,16.13
2022-12-14T10:29:31.400Z,14.60
2022-12-14T10:32:08.074Z,13.48
2022-12-14T10:34:38.463Z,13.75
2022-12-14T10:37:21.698Z,16.17
2022-12-14T10:40:12.450Z,15.10
2022-12-14T10:42:53.572Z,17.17
2022-12-14T10:45:40.286Z,14.32
2022-12-14T10:48:27.214Z,15.50
2022-12-14T10:51:01.817Z,15.65
2022-12-14T10:53:40.588Z,16.05
2022-12-14T10:56:15.937Z,15.35
2022-12-14T10:58:44.153Z,15.25
2022-12-14T11:01:15.927Z,15.55
2022-12-14T11:03:50.689Z,14.70
2022-12-14T11:06:21.248Z,15.25
2022-12-14T11:08:50.794Z,14.45
2022-12-14T11:11:23.483Z,16.13
2022-12-14T11:16:35.841Z,14.10
2022-12-14T11:19:15.338Z,15.15
2022-12-14T11:21:43.710Z,16.15
2022-12-14T11:24:23.599Z,14.40
2022-12-14T11:26:55.228Z,15.20
2022-12-14T11:29:32.889Z,15.07
2022-12-14T11:32:01.785Z,14.30
2022-12-14T11:34:36.041Z,15.82
2022-12-14T11:37:16.012Z,14.63
2022-12-14T11:39:44.433Z,14.70
2022-12-14T11:42:19.249Z,14.77
2022-12-14T11:44:49.758Z,13.80
2022-12-14T11:47:20.154Z,16.23
2022-12-14T11:49:50.419Z,14.50
2022-12-14T11:52:21.170Z,15.50
2022-12-14T11:55:05.124Z,14.00
2022-12-14T11:57:36.760Z,14.93
2022-12-14T12:00:08.608Z,14.45
2022-12-14T12:02:39.301Z,15.23
2022-12-14T12:05:12.518Z,16.13
2022-12-14T12:07:43.710Z,15.73
2022-12-14T12:10:19.895Z,15.32
2022-12-14T12:12:54.941Z,15.48
2022-12-14T12:15:27.004Z,14.60
2022-12-14T12:18:00.421Z,15.60
2022-12-14T12:20:35.592Z,15.07
2022-12-14T12:23:12.965Z,14.90
2022-12-14T12:25:43.928Z,15.57
2022-12-14T12:28:19.782Z,15.55
2022-12-14T12:30:56.536Z,14.52
2022-12-14T12:33:32.462Z,14.88
2022-12-14T12:36:07.850Z,13.65
2022-12-14T12:38:55.840Z,13.38
2022-12-14T12:41:32.198Z,14.70
2022-12-14T12:44:14.590Z,13.57
2022-12-14T12:47:22.962Z,15.38
2022-12-14T12:49:43.360Z,15.63
2022-12-14T12:52:19.277Z,17.27
2022-12-14T12:54:55.955Z,15.52
2022-12-14T12:57:27.277Z,16.55
2022-12-14T12:59:58.220Z,16.88
2022-12-14T13:02:32.821Z,16.33
2022-12-14T13:05:22.288Z,15.13
2022-12-14T13:07:56.021Z,16.08
2022-12-14T13:10:26.716Z,16.17
2022-12-14T13:12:58.717Z,15.65
2022-12-14T13:15:32.864Z,15.70
2022-12-14T13:18:04.932Z,16.83
2022-12-14T13:20:34.969Z,16.45
2022-12-14T13:23:28.425Z,16.48
2022-12-14T13:26:13.428Z,16.02
2022-12-14T13:29:02.020Z,15.98
2022-12-14T13:31:38.934Z,16.45
2022-12-14T13:34:23.575Z,14.60
2022-12-14T13:37:15.666Z,15.63
2022-12-14T13:40:18.377Z,16.02
2022-12-14T13:42:58.732Z,16.65
2022-12-14T13:45:31.942Z,17.10
2022-12-14T13:48:01.554Z,14.73
2022-12-14T13:50:36.344Z,15.50
2022-12-14T13:53:08.678Z,15.40
2022-12-14T13:55:39.269Z,14.07
2022-12-14T13:58:11.249Z,17.10
2022-12-14T14:00:58.868Z,16.92
2022-12-14T14:03:51.243Z,15.25
2022-12-14T14:06:35.005Z,16.05
2022-12-14T14:09:57.128Z,15.02
2022-12-14T14:12:44.622Z,14.35
2022-12-14T14:15:38.447Z,16.00
2022-12-14T14:18:16.362Z,16.05
2022-12-14T14:20:47.413Z,16.88
2022-12-14T14:23:38.461Z,16.80
2022-12-14T14:26:31.556Z,16.52
2022-12-14T14:29:27.183Z,15.70
2022-12-14T14:31:59.722Z,14.43
2022-12-14T14:34:47.667Z,14.50
2022-12-14T14:37:30.613Z,14.95
2022-12-14T14:42:51.502Z,15.57
2022-12-14T14:45:32.305Z,14.02
2022-12-14T14:48:04.555Z,13.02
2022-12-14T14:50:37.601Z,14.45
2022-12-14T14:53:14.839Z,13.13
2022-12-14T14:56:19.039Z,16.55
2022-12-14T14:58:47.088Z,14.73
2022-12-14T15:01:32.903Z,15.93
2022-12-14T15:04:07.961Z,16.63
2022-12-14T15:06:41.643Z,16.73
2022-12-14T15:09:19.053Z,15.80
2022-12-14T15:11:52.082Z,16.60
2022-12-14T15:14:32.778Z,17.20
2022-12-14T15:17:13.699Z,16.73
2022-12-14T15:19:47.981Z,17.27
2022-12-14T15:22:19.691Z,16.70
2022-12-14T15:24:50.587Z,15.57
2022-12-14T15:27:26.296Z,17.10
2022-12-14T15:29:56.367Z,15.73
2022-12-14T15:32:26.206Z,18.92
2022-12-14T15:35:00.814Z,18.52
2022-12-14T15:37:37.836Z,18.13
2022-12-14T15:40:11.800Z,16.75
2022-12-14T15:42:47.288Z,17.73
2022-12-14T15:45:17.879Z,18.48
2022-12-14T15:47:49.086Z,18.05
2022-12-14T15:50:32.339Z,17.60
2022-12-14T15:53:08.760Z,19.13
2022-12-14T15:55:40.209Z,16.00
2022-12-14T15:58:11.959Z,16.70
2022-12-14T16:00:45.188Z,18.33
2022-12-14T16:03:20.501Z,15.70
2022-12-14T16:05:50.426Z,17.80
2022-12-14T16:08:18.894Z,16.83
2022-12-14T16:10:50.510Z,17.10
2022-12-14T16:13:25.377Z,17.23
2022-12-14T16:15:54.528Z,17.55
2022-12-14T16:18:23.360Z,13.20
2022-12-14T16:20:59.385Z,17.70
2022-12-14T16:23:32.373Z,17.70
2022-12-14T16:26:03.955Z,17.65
2022-12-14T16:28:34.331Z,16.05
2022-12-14T16:31:06.071Z,14.32
2022-12-14T16:33:36.754Z,16.75
2022-12-14T16:36:21.151Z,17.85
2022-12-14T16:38:57.960Z,14.77
2022-12-14T16:41:36.472Z,17.60
2022-12-14T16:44:07.113Z,16.15
2022-12-14T16:46:36.076Z,18.27
2022-12-14T16:49:30.828Z,16.35
2022-12-14T16:52:07.601Z,17.30
2022-12-14T16:54:36.868Z,16.33
2022-12-14T16:57:09.069Z,18.83
2022-12-14T16:59:43.150Z,16.90
2022-12-14T17:02:29.919Z,17.67
2022-12-14T17:05:00.462Z,18.40
2022-12-14T17:07:33.130Z,17.88
2022-12-14T17:10:01.652Z,17.58
2022-12-14T17:12:30.190Z,14.98
2022-12-14T17:15:00.085Z,17.40
2022-12-14T17:17:35.033Z,17.65
2022-12-14T17:20:07.880Z,16.48
2022-12-14T17:22:40.635Z,17.15
2022-12-14T17:25:11.394Z,15.45
2022-12-14T17:27:39.831Z,15.40
2022-12-14T17:30:14.996Z,16.65
2022-12-14T17:32:44.751Z,17.00
2022-12-14T17:35:19.007Z,16.92
2022-12-14T17:37:51.235Z,15.32
2022-12-14T17:40:27.309Z,17.08
2022-12-14T17:42:59.013Z,16.83
2022-12-14T17:45:30.269Z,16.77
2022-12-14T17:48:00.293Z,16.83
2022-12-14T17:50:29.104Z,17.85
2022-12-14T17:53:00.778Z,17.15
2022-12-14T17:55:31.590Z,15.80
2022-12-14T17:58:01.838Z,16.08
2022-12-14T18:00:50.154Z,15.10
2022-12-14T18:03:21.476Z,16.60
2022-12-14T18:05:52.042Z,17.10
2022-12-14T18:08:24.975Z,15.20
2022-12-14T18:10:56.965Z,17.80
2022-12-14T18:13:26.130Z,16.13
2022-12-14T18:15:55.716Z,16.15
2022-12-14T18:18:28.315Z,17.20
2022-12-14T18:21:02.037Z,16.80
2022-12-14T18:23:34.211Z,15.55
2022-12-14T18:28:44.430Z,14.07
2022-12-14T18:31:24.387Z,15.43
2022-12-14T18:33:54.457Z,16.88
2022-12-14T18:36:24.110Z,17.05
2022-12-14T18:38:56.363Z,17.17
2022-12-14T18:41:27.959Z,16.50
2022-12-14T18:44:06.511Z,17.42
2022-12-14T18:46:39.476Z,17.80
2022-12-14T18:49:08.557Z,15.20
2022-12-14T18:51:38.382Z,17.98
2022-12-14T18:54:09.311Z,18.75
2022-12-14T18:56:39.159Z,18.38
2022-12-14T18:59:10.111Z,18.80
2022-12-14T19:01:39.368Z,18.02
2022-12-14T19:04:13.930Z,17.42
2022-12-14T19:06:48.154Z,17.55
2022-12-14T19:09:21.008Z,17.60
2022-12-14T19:11:50.956Z,18.40
2022-12-14T19:14:21.652Z,18.80
2022-12-14T19:16:54.352Z,17.55
2022-12-14T19:19:26.636Z,16.48
2022-12-14T19:22:02.694Z,16.27
2022-12-14T19:24:34.166Z,16.80
2022-12-14T19:27:04.909Z,16.48
2022-12-14T19:29:36.207Z,16.63
2022-12-14T19:32:10.113Z,18.05
2022-12-14T19:34:40.455Z,16.75
2022-12-14T19:37:13.684Z,17.50
2022-12-14T19:39:45.067Z,17.92
2022-12-14T19:42:15.628Z,16.88
2022-12-14T19:44:45.578Z,17.52
2022-12-14T19:47:22.146Z,17.58
2022-12-14T19:49:52.288Z,18.10
2022-12-14T19:52:23.968Z,17.98
2022-12-14T19:54:57.341Z,17.98
2022-12-14T19:57:28.578Z,17.85
2022-12-14T20:00:00.646Z,17.33
2022-12-14T20:02:30.986Z,16.95
2022-12-14T20:05:00.897Z,17.55
2022-12-14T20:07:31.735Z,18.25
2022-12-14T20:10:03.262Z,18.38
2022-12-14T20:12:41.981Z,16.92
2022-12-14T20:15:12.457Z,16.80
2022-12-14T20:17:42.728Z,17.42
2022-12-14T20:20:23.098Z,16.92
2022-12-14T20:22:55.033Z,17.13
2022-12-14T20:25:26.771Z,18.53
2022-12-14T20:28:00.698Z,16.25
2022-12-14T20:30:31.153Z,18.58
2022-12-14T20:33:01.054Z,17.27
2022-12-14T20:35:32.172Z,18.50
2022-12-14T20:38:02.021Z,17.02
2022-12-14T20:40:38.657Z,18.40
2022-12-14T20:43:09.982Z,18.17
2022-12-14T20:45:42.057Z,18.83
2022-12-14T20:48:12.470Z,18.80
2022-12-14T20:50:44.548Z,14.88
2022-12-14T20:53:20.811Z,17.45
2022-12-14T20:55:52.399Z,18.75
2022-12-14T20:58:22.342Z,18.35
2022-12-14T21:00:51.801Z,19.15
2022-12-14T21:03:20.744Z,19.15
2022-12-14T21:05:51.772Z,18.85
2022-12-14T21:08:20.811Z,18.27
2022-12-14T21:11:21.025Z,18.05
2022-12-14T21:13:50.417Z,19.45
2022-12-14T21:16:19.170Z,18.70
2022-12-14T21:18:47.350Z,19.00
2022-12-14T21:21:16.356Z,20.52
2022-12-14T21:23:44.529Z,19.40
2022-12-14T21:26:14.936Z,19.85
2022-12-14T21:28:43.765Z,17.88
2022-12-14T21:31:16.224Z,19.90
2022-12-14T21:33:49.593Z,22.33
2022-12-14T21:36:18.222Z,22.27
2022-12-14T21:38:46.297Z,21.85
2022-12-14T21:41:33.698Z,21.88
2022-12-14T21:44:01.883Z,24.02
2022-12-14T21:46:30.127Z,22.75
2022-12-14T21:48:58.354Z,22.08
2022-12-14T21:51:26.853Z,24.63
2022-12-14T21:54:02.202Z,23.23
2022-12-14T21:56:50.547Z,22.85
2022-12-14T21:59:55.952Z,20.83
2022-12-14T22:02:25.727Z,21.75
2022-12-14T22:04:56.305Z,20.13
2022-12-14T22:07:26.754Z,20.58
2022-12-14T22:09:57.706Z,20.15
2022-12-14T22:12:27.331Z,21.63
2022-12-14T22:14:55.560Z,21.75
2022-12-14T22:17:23.699Z,22.05
2022-12-14T22:19:54.373Z,20.98
2022-12-14T22:22:22.515Z,22.23
2022-12-14T22:24:51.669Z,22.95
2022-12-14T22:27:21.317Z,21.50
2022-12-14T22:30:01.009Z,22.30
2022-12-14T22:32:29.145Z,20.98
2022-12-14T22:34:57.240Z,21.95
2022-12-14T22:37:25.312Z,23.65
2022-12-14T22:39:53.853Z,22.25
2022-12-14T22:42:22.250Z,22.70
2022-12-14T22:44:51.740Z,22.77
2022-12-14T22:47:19.833Z,21.27
2022-12-14T22:49:48.105Z,21.40
2022-12-14T22:52:21.292Z,21.88
2022-12-14T22:54:52.521Z,20.90
2022-12-14T22:57:22.683Z,22.83
2022-12-14T22:59:57.424Z,22.52
2022-12-14T23:02:26.404Z,22.55
2022-12-14T23:04:54.631Z,22.65
2022-12-14T23:07:22.845Z,21.48
2022-12-14T23:10:08.690Z,22.40
2022-12-14T23:12:53.894Z,23.02
2022-12-14T23:15:40.957Z,20.63
2022-12-14T23:18:27.091Z,20.90
2022-12-14T23:21:12.990Z,19.80
2022-12-14T23:24:00.524Z,18.88
2022-12-14T23:26:46.453Z,17.42
2022-12-14T23:29:32.280Z,18.65
2022-12-14T23:32:19.290Z,20.27
2022-12-14T23:35:04.919Z,19.88
2022-12-14T23:37:50.336Z,21.02
2022-12-14T23:40:35.961Z,18.02
2022-12-14T23:43:27.071Z,18.65
2022-12-14T23:46:12.533Z,19.08
2022-12-14T23:48:59.637Z,19.13
2022-12-14T23:51:45.316Z,20.77
2022-12-14T23:54:30.919Z,20.73
2022-12-14T23:57:16.460Z,21.10
